createdAt,value
2023-05-19T00:04:45.536Z,4.53
2023-05-19T00:09:48.404Z,6.53
2023-05-19T00:14:51.992Z,4.75
2023-05-19T00:19:54.862Z,4.78
2023-05-19T00:24:57.844Z,5.32
2023-05-19T00:30:00.499Z,5.35
2023-05-19T00:35:04.784Z,5.53
2023-05-19T00:40:12.394Z,5.75
2023-05-19T00:45:15.045Z,5.88
2023-05-19T00:50:18.452Z,5.95
2023-05-19T00:55:43.022Z,5.25
2023-05-19T01:00:47.194Z,5.57
2023-05-19T01:05:53.843Z,5.93
2023-05-19T01:11:21.874Z,5.78
2023-05-19T01:16:39.853Z,5.60
2023-05-19T01:22:15.912Z,5.70
2023-05-19T01:27:29.391Z,5.25
2023-05-19T01:32:35.511Z,5.60
2023-05-19T01:37:39.710Z,5.13
2023-05-19T01:42:47.006Z,5.50
2023-05-19T01:47:54.623Z,5.63
2023-05-19T01:53:01.101Z,4.70
2023-05-19T01:58:14.549Z,5.53
2023-05-19T02:03:38.806Z,5.68
2023-05-19T02:13:55.789Z,5.70
2023-05-19T02:19:00.652Z,5.47
2023-05-19T02:24:03.546Z,5.05
2023-05-19T02:29:06.261Z,7.63
2023-05-19T02:34:08.974Z,5.57
2023-05-19T02:39:13.057Z,6.17
2023-05-19T02:44:18.255Z,6.13
2023-05-19T02:49:21.171Z,6.85
2023-05-19T02:54:24.277Z,6.97
2023-05-19T02:59:31.081Z,8.15
2023-05-19T03:04:44.221Z,7.60
2023-05-19T03:09:47.380Z,7.25
2023-05-19T03:14:51.186Z,6.82
2023-05-19T03:19:54.119Z,6.00
2023-05-19T03:24:58.549Z,7.10
2023-05-19T03:30:02.697Z,7.82
2023-05-19T03:35:07.510Z,6.93
2023-05-19T03:40:12.321Z,7.97
2023-05-19T03:45:20.212Z,7.85
2023-05-19T03:50:29.186Z,6.65
2023-05-19T03:55:37.950Z,7.20
2023-05-19T04:00:42.717Z,8.27
2023-05-19T04:05:46.387Z,8.85
2023-05-19T04:10:49.366Z,8.93
2023-05-19T04:15:52.063Z,8.50
2023-05-19T04:20:54.822Z,8.73
2023-05-19T04:25:58.195Z,8.65
2023-05-19T04:31:03.575Z,10.05
2023-05-19T04:36:11.535Z,8.60
2023-05-19T04:41:17.709Z,10.20
2023-05-19T04:46:24.414Z,10.75
2023-05-19T04:51:31.446Z,8.88
2023-05-19T04:56:37.136Z,10.43
2023-05-19T05:01:41.088Z,11.13
2023-05-19T05:06:48.961Z,11.32
2023-05-19T05:12:11.397Z,11.82
2023-05-19T05:17:16.240Z,12.38
2023-05-19T05:22:19.759Z,11.60
2023-05-19T05:27:22.626Z,11.77
2023-05-19T05:32:26.070Z,10.75
2023-05-19T05:37:31.256Z,10.35
2023-05-19T05:42:34.299Z,9.80
2023-05-19T05:47:41.597Z,9.73
2023-05-19T05:52:49.271Z,9.25
2023-05-19T05:57:57.048Z,9.18
2023-05-19T06:03:03.195Z,8.88
2023-05-19T06:08:07.964Z,8.07
2023-05-19T06:13:12.917Z,7.97
2023-05-19T06:18:17.525Z,7.88
2023-05-19T06:23:22.206Z,6.30
2023-05-19T06:28:25.465Z,6.32
2023-05-19T06:33:47.655Z,6.60
2023-05-19T06:38:52.376Z,5.75
2023-05-19T06:43:58.472Z,5.70
2023-05-19T06:49:01.623Z,5.70
2023-05-19T06:54:11.405Z,4.43
2023-05-19T06:59:14.158Z,5.00
2023-05-19T07:04:17.176Z,4.63
2023-05-19T07:09:20.114Z,4.40
2023-05-19T07:14:24.936Z,4.93
2023-05-19T07:24:32.309Z,3.92
2023-05-19T07:29:35.093Z,4.05
2023-05-19T07:34:38.294Z,4.15
2023-05-19T07:39:42.492Z,4.15
2023-05-19T07:44:49.650Z,3.60
2023-05-19T07:49:52.576Z,3.00
2023-05-19T07:54:55.796Z,2.75
2023-05-19T07:59:58.665Z,3.13
2023-05-19T08:05:01.494Z,3.47
2023-05-19T08:10:04.435Z,3.33
2023-05-19T08:15:15.525Z,3.80
2023-05-19T08:20:18.224Z,3.58
2023-05-19T08:25:20.974Z,3.90
2023-05-19T08:30:23.958Z,3.78
2023-05-19T08:35:27.078Z,4.50
2023-05-19T08:40:35.981Z,3.77
2023-05-19T08:45:43.195Z,4.22
2023-05-19T08:50:59.096Z,3.97
2023-05-19T08:56:11.107Z,3.88
2023-05-19T09:01:18.003Z,3.88
2023-05-19T09:06:22.283Z,4.00
2023-05-19T09:11:24.929Z,3.38
2023-05-19T09:16:30.217Z,3.90
2023-05-19T09:21:33.369Z,3.92
2023-05-19T09:26:40.473Z,4.37
2023-05-19T09:31:50.747Z,4.10
2023-05-19T09:36:54.152Z,3.30
2023-05-19T09:41:59.537Z,3.55
2023-05-19T09:47:03.959Z,3.88
2023-05-19T09:57:10.565Z,4.22
2023-05-19T10:02:18.949Z,4.03
2023-05-19T10:07:24.230Z,3.85
2023-05-19T10:12:27.105Z,3.75
2023-05-19T10:17:30.127Z,3.70
2023-05-19T10:22:33.650Z,3.45
2023-05-19T10:27:41.109Z,3.80
2023-05-19T10:32:45.163Z,3.22
2023-05-19T10:38:12.358Z,4.15
2023-05-19T10:43:36.653Z,4.70
2023-05-19T10:48:45.388Z,3.65
2023-05-19T10:53:50.762Z,3.83
2023-05-19T10:58:54.403Z,3.78
2023-05-19T11:03:57.594Z,3.47
2023-05-19T11:14:04.502Z,3.80
2023-05-19T11:24:10.143Z,3.20
2023-05-19T11:29:13.140Z,3.67
2023-05-19T11:34:16.468Z,3.88
2023-05-19T11:39:19.122Z,3.22
2023-05-19T11:44:21.778Z,4.03
2023-05-19T11:49:24.626Z,3.92
2023-05-19T11:54:36.627Z,4.00
2023-05-19T11:59:43.882Z,3.13
2023-05-19T12:04:48.286Z,3.50
2023-05-19T12:09:52.348Z,3.63
2023-05-19T12:14:55.161Z,3.30
2023-05-19T12:19:57.892Z,3.45
2023-05-19T12:25:01.884Z,2.80
2023-05-19T12:30:06.079Z,3.03
2023-05-19T12:35:09.572Z,3.58
2023-05-19T12:40:16.656Z,5.03
2023-05-19T12:45:22.268Z,6.35
2023-05-19T12:50:31.663Z,5.90
2023-05-19T12:55:45.584Z,4.20
2023-05-19T13:00:50.069Z,3.90
2023-05-19T13:05:53.538Z,3.75
2023-05-19T13:15:58.983Z,3.83
2023-05-19T13:21:20.373Z,3.70
2023-05-19T13:31:45.153Z,5.32
2023-05-19T13:36:48.984Z,5.05
2023-05-19T13:41:51.946Z,3.70
2023-05-19T13:52:00.103Z,4.28
2023-05-19T13:57:02.793Z,3.83
2023-05-19T14:02:06.621Z,4.10
2023-05-19T14:07:10.528Z,4.20
2023-05-19T14:12:14.137Z,3.78
2023-05-19T14:17:17.010Z,3.80
2023-05-19T14:22:38.248Z,3.63
2023-05-19T14:27:41.032Z,3.78
2023-05-19T14:32:44.828Z,3.53
2023-05-19T14:37:47.478Z,3.70
2023-05-19T14:42:50.256Z,3.65
2023-05-19T14:47:53.070Z,3.50
2023-05-19T14:52:55.910Z,3.95
2023-05-19T14:57:58.806Z,3.45
2023-05-19T15:03:04.620Z,3.28
2023-05-19T15:08:07.460Z,3.63
2023-05-19T15:13:10.407Z,3.28
2023-05-19T15:23:18.885Z,4.00
2023-05-19T15:28:21.580Z,3.92
2023-05-19T15:33:24.315Z,4.68
2023-05-19T15:38:30.105Z,3.60
2023-05-19T15:43:33.317Z,3.53
2023-05-19T15:48:36.014Z,4.22
2023-05-19T15:53:38.663Z,3.45
2023-05-19T15:58:42.837Z,4.35
2023-05-19T16:04:04.176Z,3.63
2023-05-19T16:09:08.329Z,4.03
2023-05-19T16:14:11.089Z,7.70
2023-05-19T16:19:13.909Z,4.05
2023-05-19T16:24:16.885Z,3.95
2023-05-19T16:29:20.003Z,4.15
2023-05-19T16:34:28.561Z,4.10
2023-05-19T16:39:33.199Z,4.47
2023-05-19T16:44:36.153Z,3.88
2023-05-19T16:49:41.007Z,4.03
2023-05-19T16:54:44.068Z,3.80
2023-05-19T16:59:47.103Z,3.83
2023-05-19T17:04:50.376Z,3.60
2023-05-19T17:09:56.031Z,3.78
2023-05-19T17:14:59.241Z,3.95
2023-05-19T17:20:02.221Z,4.15
2023-05-19T17:25:05.873Z,3.87
2023-05-19T17:30:09.392Z,3.88
2023-05-19T17:35:12.166Z,3.70
2023-05-19T17:40:14.972Z,3.80
2023-05-19T17:45:17.785Z,3.80
2023-05-19T17:50:21.044Z,3.87
2023-05-19T17:55:30.031Z,4.30
2023-05-19T18:00:33.433Z,4.05
2023-05-19T18:05:37.937Z,3.88
2023-05-19T18:10:44.048Z,3.35
2023-05-19T18:15:47.621Z,4.10
2023-05-19T18:20:51.848Z,3.43
2023-05-19T18:25:54.450Z,3.80
2023-05-19T18:31:09.239Z,3.97
2023-05-19T18:36:12.453Z,3.33
2023-05-19T18:41:15.132Z,3.50
2023-05-19T18:46:18.352Z,4.70
2023-05-19T18:51:22.998Z,3.20
2023-05-19T18:56:27.324Z,4.10
2023-05-19T19:01:30.036Z,3.80
2023-05-19T19:06:35.458Z,3.70
2023-05-19T19:11:38.565Z,3.47
2023-05-19T19:16:41.412Z,3.17
2023-05-19T19:21:44.368Z,3.70
2023-05-19T19:26:47.300Z,3.45
2023-05-19T19:31:54.183Z,3.72
2023-05-19T19:36:57.251Z,3.00
2023-05-19T19:42:03.781Z,3.47
2023-05-19T19:47:07.445Z,3.60
2023-05-19T19:52:12.358Z,3.67
2023-05-19T19:57:17.328Z,3.70
2023-05-19T20:02:19.951Z,3.72
2023-05-19T20:07:23.351Z,3.78
2023-05-19T20:12:26.431Z,3.50
2023-05-19T20:17:30.623Z,3.90
2023-05-19T20:22:33.397Z,3.60
2023-05-19T20:27:36.316Z,3.55
2023-05-19T20:32:40.615Z,3.90
2023-05-19T20:37:43.369Z,3.45
2023-05-19T20:42:46.342Z,3.63
2023-05-19T20:47:48.976Z,3.70
2023-05-19T20:52:53.025Z,3.90
2023-05-19T20:57:56.105Z,3.47
2023-05-19T21:02:59.020Z,4.07
2023-05-19T21:08:02.757Z,4.47
2023-05-19T21:18:12.237Z,3.92
2023-05-19T21:23:16.692Z,4.10
2023-05-19T21:33:24.595Z,5.30
2023-05-19T21:38:29.249Z,4.45
2023-05-19T21:43:32.084Z,5.10
2023-05-19T21:48:34.727Z,5.28
2023-05-19T21:53:41.732Z,4.95
2023-05-19T21:58:44.455Z,5.65
2023-05-19T22:03:48.380Z,4.90
2023-05-19T22:08:51.269Z,4.75
2023-05-19T22:13:54.912Z,5.28
2023-05-19T22:18:57.821Z,5.10
2023-05-19T22:24:01.747Z,4.90
2023-05-19T22:29:04.595Z,5.30
2023-05-19T22:34:08.247Z,5.45
2023-05-19T22:39:15.225Z,4.93
2023-05-19T22:44:19.584Z,5.60
2023-05-19T22:49:23.054Z,5.18
2023-05-19T22:54:26.212Z,4.40
2023-05-19T22:59:29.260Z,4.47
2023-05-19T23:04:34.168Z,5.03
2023-05-19T23:09:36.981Z,5.90
2023-05-19T23:14:39.705Z,4.53
2023-05-19T23:19:42.498Z,5.40
2023-05-19T23:24:45.205Z,5.38
2023-05-19T23:29:52.197Z,5.35
2023-05-19T23:34:55.017Z,5.35
2023-05-19T23:39:58.643Z,5.50
2023-05-19T23:50:06.285Z,5.13
2023-05-19T23:55:09.864Z,5.22
